Leesburg International Airport Leesburg US
ICAO: KLEE
IATA: LEE
Category: Medium
Scheduled Services: No

Elevation: 76 ft
TransAlt. 18000 ft.

Airport Communications:
ORLANDO APP/DEP:121.1
ASOS:134.325
CTAF/UNICOM:122.725

KLEE Zoom In..

If Map Doesn't Load, Click Here

Runways:

(A) RW 03 length 4957 ft width 100 ft
---- / hdg 40

(B) RW 13 length 6300 ft width 100 ft
---- / hdg 135

(C) RW 21 length 4957 ft width 100 ft
---- / hdg 220

(D) RW 31 length 6300 ft width 100 ft
---- / hdg 315

Location; KLEE
Day. 24 / Time. 04.53 Zulu
* Altimeter: 30.04
* Temperature: 26° c. 78.8°f.
* Wind from: 080° Speed 03 kn.
Dewpoint: 23° c.
Visibility: 10 Statute Miles.
Clouds: Clear (automated report).

KLEE 240453Z AUTO 08003KT 10SM CLR 26/23 A3004 RMK AO2 SLP171 T02560233 403390233


Wind From 080°
Speed 03 kn.

 
 
jpsmedia.com for Web Design worldairports.se 2018   terms of use